Time;durP1;ratioP1;P1;durP2;ratioP2;P2;SDS_P1;SDS_P2;PMS_P1;PMS_P2;Temp;Humidity;BMP_temperature;BMP_pressure;BME280_temperature;BME280_humidity;BME280_pressure;Samples;Min_cycle;Max_cycle;Signal;HPM_P1;HPM_P2
2022/10/31 00:00:54;;;;;;;3.60;1.90;;;11.90;98.00;;;;;;5092279;28;20852;-67
2022/10/31 00:03:22;;;;;;;3.27;2.20;;;12.00;98.00;;;;;;5091848;28;20465;-67
2022/10/31 00:05:50;;;;;;;6.40;2.20;;;12.00;98.00;;;;;;5090844;28;20447;-67
2022/10/31 00:08:18;;;;;;;4.77;2.53;;;11.90;98.00;;;;;;5091455;28;20872;-67
2022/10/31 00:10:46;;;;;;;3.63;2.63;;;11.70;98.00;;;;;;5092142;28;20525;-67
2022/10/31 00:13:15;;;;;;;4.40;2.97;;;11.70;98.00;;;;;;5091888;28;20488;-67
2022/10/31 00:15:42;;;;;;;4.13;2.17;;;11.60;98.00;;;;;;5092052;28;20487;-67
2022/10/31 00:18:11;;;;;;;3.17;2.10;;;11.70;98.00;;;;;;5090678;28;20470;-67
2022/10/31 00:20:40;;;;;;;2.77;2.07;;;11.70;98.00;;;;;;5090834;28;20475;-67
2022/10/31 00:23:07;;;;;;;3.23;2.13;;;11.60;98.00;;;;;;5091906;28;20510;-67
2022/10/31 00:25:38;;;;;;;2.63;2.10;;;11.50;98.00;;;;;;5091996;28;20454;-67
2022/10/31 00:28:06;;;;;;;5.30;2.00;;;11.40;98.00;;;;;;5091683;28;20466;-67
2022/10/31 00:30:34;;;;;;;5.80;2.83;;;11.30;98.00;;;;;;5091795;28;20462;-67
2022/10/31 00:33:01;;;;;;;5.53;2.60;;;11.30;98.00;;;;;;5091803;28;20483;-67
2022/10/31 00:35:28;;;;;;;3.40;2.20;;;11.30;98.00;;;;;;5091622;28;20455;-67
2022/10/31 00:37:56;;;;;;;5.37;2.60;;;11.40;98.00;;;;;;5091384;28;20459;-67
2022/10/31 00:40:23;;;;;;;3.20;2.30;;;11.40;98.00;;;;;;5091128;28;20465;-67
2022/10/31 00:42:51;;;;;;;29.27;3.00;;;11.40;98.00;;;;;;5090954;28;20459;-67
2022/10/31 00:45:18;;;;;;;5.20;2.43;;;11.50;98.00;;;;;;5091136;28;20469;-67
2022/10/31 00:47:45;;;;;;;3.73;2.20;;;11.40;98.00;;;;;;5090959;28;20530;-67
2022/10/31 00:50:12;;;;;;;4.23;2.20;;;11.40;98.00;;;;;;5091240;28;20465;-67
2022/10/31 00:52:39;;;;;;;3.40;2.20;;;11.40;98.00;;;;;;5090176;28;20490;-67
2022/10/31 00:55:08;;;;;;;4.50;2.23;;;11.50;98.00;;;;;;5091583;28;20518;-67
2022/10/31 00:57:35;;;;;;;6.20;2.63;;;11.50;98.00;;;;;;5091393;28;20522;-67
2022/10/31 01:00:02;;;;;;;6.17;2.60;;;11.60;98.00;;;;;;5091568;28;20935;-67
2022/10/31 01:02:29;;;;;;;9.70;3.17;;;11.40;98.00;;;;;;5090101;28;20474;-67
2022/10/31 01:04:57;;;;;;;4.40;2.23;;;11.40;98.00;;;;;;5091684;28;20468;-67
2022/10/31 01:07:24;;;;;;;3.60;2.33;;;11.40;98.00;;;;;;5090193;28;20461;-67
2022/10/31 01:09:51;;;;;;;6.10;2.60;;;11.30;98.00;;;;;;5090395;28;20823;-67
2022/10/31 01:12:19;;;;;;;5.93;3.00;;;11.30;98.00;;;;;;5091384;28;20458;-67
2022/10/31 01:14:48;;;;;;;4.00;2.20;;;11.10;98.00;;;;;;5091418;28;20458;-67
2022/10/31 01:17:15;;;;;;;4.83;2.50;;;11.00;98.00;;;;;;5091475;28;20467;-67
2022/10/31 01:19:42;;;;;;;4.63;2.43;;;10.90;98.00;;;;;;5091683;28;20475;-67
2022/10/31 01:22:09;;;;;;;5.00;2.83;;;10.80;98.00;;;;;;5095195;28;20471;-67
2022/10/31 01:24:36;;;;;;;2.90;1.97;;;10.70;98.00;;;;;;5093939;28;20459;-67
2022/10/31 01:27:04;;;;;;;3.13;2.30;;;10.60;98.00;;;;;;5095148;28;20792;-67
2022/10/31 01:29:32;;;;;;;4.50;2.43;;;10.60;98.00;;;;;;5094915;28;20471;-67
2022/10/31 01:31:59;;;;;;;16.13;2.50;;;10.60;98.00;;;;;;5094941;28;20460;-67
2022/10/31 01:34:26;;;;;;;3.43;2.40;;;10.50;98.00;;;;;;5094628;28;20491;-67
2022/10/31 01:36:53;;;;;;;6.27;2.20;;;10.60;98.00;;;;;;5094708;28;20460;-67
2022/10/31 01:39:20;;;;;;;3.10;2.10;;;10.60;98.00;;;;;;5094510;28;20491;-67
2022/10/31 01:41:50;;;;;;;4.00;2.23;;;10.60;98.00;;;;;;5094567;28;20462;-67
2022/10/31 01:44:54;;;;;;;3.30;2.10;;;10.60;98.00;;;;;;5094248;28;20458;-67
2022/10/31 01:47:29;;;;;;;4.47;2.63;;;10.60;98.00;;;;;;5094456;28;20477;-67
2022/10/31 01:49:59;;;;;;;4.27;2.80;;;10.60;98.00;;;;;;5094207;28;20463;-67
2022/10/31 01:52:31;;;;;;;6.30;2.57;;;10.60;98.00;;;;;;5094326;28;20458;-67
2022/10/31 01:55:02;;;;;;;4.97;2.60;;;10.50;98.00;;;;;;5094397;28;20468;-67
2022/10/31 01:57:31;;;;;;;3.67;2.00;;;10.50;98.00;;;;;;5094303;28;20461;-67
2022/10/31 02:00:04;;;;;;;3.03;2.30;;;10.50;98.00;;;;;;5093865;28;20460;-67
2022/10/31 02:02:32;;;;;;;4.50;2.57;;;10.60;98.00;;;;;;5094100;28;20455;-67
2022/10/31 02:05:02;;;;;;;7.23;2.83;;;10.70;98.00;;;;;;5094249;28;20506;-67
2022/10/31 02:07:37;;;;;;;2.40;2.23;;;10.60;98.00;;;;;;5094094;28;20455;-67
2022/10/31 02:10:05;;;;;;;3.30;2.00;;;10.60;98.00;;;;;;5094403;28;20459;-67
2022/10/31 02:12:35;;;;;;;4.87;2.30;;;10.50;98.00;;;;;;5093918;28;20463;-67
2022/10/31 02:15:06;;;;;;;3.10;2.27;;;10.50;98.00;;;;;;5094183;28;20494;-67
2022/10/31 02:17:33;;;;;;;6.30;2.33;;;10.40;98.00;;;;;;5092980;28;20877;-67
2022/10/31 02:20:10;;;;;;;4.90;2.43;;;10.30;98.00;;;;;;5094221;28;20869;-67
2022/10/31 02:22:46;;;;;;;4.80;2.57;;;10.20;98.00;;;;;;5094020;28;20533;-67
2022/10/31 02:25:37;;;;;;;3.03;2.40;;;10.20;98.00;;;;;;5093955;28;20462;-67
2022/10/31 02:28:31;;;;;;;4.77;2.50;;;10.20;98.00;;;;;;5085574;28;20460;-67
2022/10/31 02:31:19;;;;;;;5.97;2.57;;;10.20;98.00;;;;;;5093317;28;20556;-67
2022/10/31 02:33:53;;;;;;;3.63;2.70;;;10.30;98.00;;;;;;5093244;28;20483;-67
2022/10/31 02:36:26;;;;;;;3.87;2.27;;;10.30;98.00;;;;;;5093572;28;20950;-67
2022/10/31 02:39:02;;;;;;;2.63;1.90;;;10.30;98.00;;;;;;5093105;28;20463;-67
2022/10/31 02:41:36;;;;;;;4.53;2.47;;;10.40;98.00;;;;;;5093475;28;20462;-67
2022/10/31 02:44:10;;;;;;;3.90;2.00;;;10.40;98.00;;;;;;5093218;28;20450;-67
2022/10/31 02:46:46;;;;;;;5.00;3.07;;;10.40;98.00;;;;;;5093392;28;20941;-67
2022/10/31 02:49:19;;;;;;;8.80;2.80;;;10.50;98.00;;;;;;5093235;28;20826;-67
2022/10/31 02:51:46;;;;;;;4.33;2.30;;;10.50;98.00;;;;;;5093187;28;20466;-67
2022/10/31 02:54:25;;;;;;;2.73;2.07;;;10.30;98.00;;;;;;5092908;28;21015;-67
2022/10/31 02:56:57;;;;;;;13.40;2.10;;;10.30;98.00;;;;;;5091595;28;20462;-66
2022/10/31 02:59:25;;;;;;;4.53;2.60;;;10.40;98.00;;;;;;5093086;28;20457;-67
2022/10/31 03:02:25;;;;;;;7.13;2.73;;;10.40;98.00;;;;;;5093085;28;20512;-67
2022/10/31 03:05:15;;;;;;;3.30;1.87;;;10.30;98.00;;;;;;5093197;28;20460;-67
2022/10/31 03:07:51;;;;;;;3.80;2.33;;;10.20;98.00;;;;;;5093008;28;20864;-67
2022/10/31 03:10:28;;;;;;;2.93;2.27;;;10.20;98.00;;;;;;5093118;28;20463;-67
2022/10/31 03:13:02;;;;;;;5.43;2.57;;;10.10;98.00;;;;;;5092809;28;20517;-67
2022/10/31 03:15:33;;;;;;;3.57;1.80;;;10.10;98.00;;;;;;5093193;28;20462;-67
2022/10/31 03:18:06;;;;;;;6.03;2.40;;;10.10;98.00;;;;;;5092856;28;20448;-67
2022/10/31 03:20:38;;;;;;;2.63;2.07;;;10.10;98.00;;;;;;5092678;28;20463;-67
2022/10/31 03:23:07;;;;;;;6.23;2.37;;;10.10;98.00;;;;;;5092732;28;20954;-67
2022/10/31 03:25:37;;;;;;;2.93;1.97;;;10.30;98.00;;;;;;5092427;28;20454;-67
2022/10/31 03:28:06;;;;;;;17.07;3.13;;;10.30;98.00;;;;;;5092519;28;20466;-67
2022/10/31 03:30:36;;;;;;;3.80;2.13;;;10.20;98.00;;;;;;5092465;28;20458;-67
2022/10/31 03:33:10;;;;;;;9.20;2.33;;;10.00;98.00;;;;;;5092303;28;20458;-67
2022/10/31 03:35:42;;;;;;;4.40;2.43;;;9.90;98.00;;;;;;5092456;28;20512;-67
2022/10/31 03:38:10;;;;;;;4.77;2.27;;;10.00;98.00;;;;;;5092210;28;21075;-67
2022/10/31 03:40:40;;;;;;;5.10;2.53;;;10.00;98.00;;;;;;5092387;28;21110;-67
2022/10/31 03:43:14;;;;;;;2.80;2.03;;;10.00;98.00;;;;;;5091532;28;20486;-67
2022/10/31 03:45:44;;;;;;;3.40;2.07;;;9.90;98.00;;;;;;5092617;28;20457;-67
2022/10/31 03:48:14;;;;;;;6.00;2.47;;;10.00;98.00;;;;;;5092223;28;21033;-67
2022/10/31 03:50:47;;;;;;;3.20;1.80;;;10.00;98.00;;;;;;5092073;28;20521;-67
2022/10/31 03:53:17;;;;;;;7.37;2.40;;;9.90;98.00;;;;;;5092076;28;20455;-67
2022/10/31 03:55:52;;;;;;;5.20;2.53;;;10.00;98.00;;;;;;5091804;28;20930;-67
2022/10/31 03:58:22;;;;;;;3.53;2.63;;;10.00;98.00;;;;;;5092211;28;20464;-67
2022/10/31 04:00:51;;;;;;;13.93;2.90;;;9.90;98.00;;;;;;5092134;28;20461;-67
2022/10/31 04:03:26;;;;;;;9.17;2.17;;;9.90;98.00;;;;;;5092051;28;20465;-67
2022/10/31 04:05:55;;;;;;;3.53;2.10;;;9.90;98.00;;;;;;5092187;28;20457;-67
2022/10/31 04:08:29;;;;;;;13.17;1.87;;;9.90;98.00;;;;;;5092417;28;20458;-66
2022/10/31 04:10:58;;;;;;;3.13;2.10;;;9.90;98.00;;;;;;5091977;28;20462;-67
2022/10/31 04:13:29;;;;;;;6.27;2.63;;;10.10;98.00;;;;;;5091761;28;20989;-67
2022/10/31 04:15:57;;;;;;;11.60;2.30;;;10.00;98.00;;;;;;5091833;28;20452;-67
2022/10/31 04:18:26;;;;;;;17.50;2.80;;;10.00;98.00;;;;;;5090775;28;20463;-67
2022/10/31 04:21:01;;;;;;;4.23;2.33;;;10.10;98.00;;;;;;5091083;28;20954;-67
2022/10/31 04:23:29;;;;;;;3.80;2.83;;;10.10;98.00;;;;;;5091833;28;20456;-67
2022/10/31 04:25:56;;;;;;;4.90;2.67;;;9.90;98.00;;;;;;5091835;28;20542;-66
2022/10/31 04:28:23;;;;;;;2.07;1.80;;;9.80;98.00;;;;;;5091909;28;20518;-66
2022/10/31 04:30:52;;;;;;;5.20;2.73;;;9.80;98.00;;;;;;5091826;28;20453;-67
2022/10/31 04:33:19;;;;;;;5.20;2.47;;;9.80;98.00;;;;;;5091736;28;20776;-67
2022/10/31 04:35:49;;;;;;;3.80;2.50;;;9.80;98.00;;;;;;5091842;28;20456;-67
2022/10/31 04:38:16;;;;;;;4.23;2.20;;;9.90;98.00;;;;;;5091640;28;20458;-67
2022/10/31 04:40:43;;;;;;;4.00;2.47;;;9.90;98.00;;;;;;5091864;28;20895;-67
2022/10/31 04:43:11;;;;;;;3.80;2.27;;;9.90;98.00;;;;;;5091637;28;20458;-67
2022/10/31 04:45:38;;;;;;;9.10;2.93;;;9.80;98.00;;;;;;5091848;28;20463;-66
2022/10/31 04:48:06;;;;;;;2.97;2.00;;;9.80;98.00;;;;;;5091664;28;20463;-66
2022/10/31 04:50:33;;;;;;;5.90;2.20;;;9.80;98.00;;;;;;5091625;28;20470;-67
2022/10/31 04:53:01;;;;;;;4.50;2.50;;;9.70;98.00;;;;;;5090306;28;20936;-67
2022/10/31 04:55:28;;;;;;;4.33;1.97;;;9.60;98.00;;;;;;5093657;28;20490;-67
2022/10/31 04:57:56;;;;;;;5.80;2.73;;;9.60;98.00;;;;;;5095612;28;20455;-67
2022/10/31 05:00:23;;;;;;;2.70;2.07;;;9.60;98.00;;;;;;5095646;28;20850;-66
2022/10/31 05:02:52;;;;;;;4.37;1.97;;;9.70;98.00;;;;;;5095501;28;20459;-67
2022/10/31 05:05:21;;;;;;;2.90;2.00;;;9.70;98.00;;;;;;5095611;28;20458;-67
2022/10/31 05:07:49;;;;;;;12.40;3.30;;;9.70;98.00;;;;;;5095064;28;20462;-67
2022/10/31 05:10:19;;;;;;;3.10;2.20;;;9.80;98.00;;;;;;5095263;28;20461;-67
2022/10/31 05:12:48;;;;;;;6.80;2.80;;;9.80;98.00;;;;;;5094952;28;20447;-67
2022/10/31 05:15:17;;;;;;;4.47;2.43;;;9.80;98.00;;;;;;5094902;28;20479;-67
2022/10/31 05:17:44;;;;;;;6.60;2.00;;;9.80;98.00;;;;;;5094867;28;20467;-67
2022/10/31 05:20:12;;;;;;;3.30;2.23;;;9.70;98.00;;;;;;5076999;28;20937;-67
2022/10/31 05:22:44;;;;;;;6.43;2.80;;;9.70;98.00;;;;;;5094893;28;20470;-66
2022/10/31 05:25:11;;;;;;;2.63;1.70;;;9.70;98.00;;;;;;5094869;28;20978;-67
2022/10/31 05:27:41;;;;;;;3.57;2.17;;;9.80;98.00;;;;;;5095078;28;20460;-66
2022/10/31 05:30:10;;;;;;;4.20;2.07;;;9.70;98.00;;;;;;5094879;28;20465;-66
2022/10/31 05:32:41;;;;;;;3.37;2.13;;;9.70;98.00;;;;;;5094678;28;20545;-67
2022/10/31 05:35:09;;;;;;;3.00;2.10;;;9.70;98.00;;;;;;5094704;28;20992;-66
2022/10/31 05:37:36;;;;;;;2.80;2.10;;;9.70;98.00;;;;;;5093499;28;20521;-67
2022/10/31 05:40:04;;;;;;;3.63;2.33;;;9.60;98.00;;;;;;5094977;28;20459;-66
2022/10/31 05:42:31;;;;;;;2.80;2.00;;;9.50;98.00;;;;;;5094654;28;20646;-67
2022/10/31 05:45:00;;;;;;;2.60;2.00;;;9.60;98.00;;;;;;5094929;28;20514;-66
2022/10/31 05:47:27;;;;;;;3.30;2.27;;;9.60;98.00;;;;;;5094496;28;20464;-67
2022/10/31 05:49:57;;;;;;;3.37;1.90;;;9.50;98.00;;;;;;5094575;28;20457;-67
2022/10/31 05:52:24;;;;;;;2.87;1.93;;;9.50;98.00;;;;;;5094382;28;20451;-67
2022/10/31 05:54:51;;;;;;;2.40;2.03;;;9.40;98.00;;;;;;5094636;28;20559;-67
2022/10/31 05:57:18;;;;;;;5.87;2.27;;;9.40;98.00;;;;;;5094368;28;20452;-67
2022/10/31 05:59:45;;;;;;;2.93;2.00;;;9.30;98.00;;;;;;5094498;28;20464;-66
2022/10/31 06:02:15;;;;;;;2.90;2.10;;;9.20;98.00;;;;;;5094130;28;20459;-66
2022/10/31 06:04:42;;;;;;;2.17;1.70;;;9.30;98.00;;;;;;5092875;28;20458;-66
2022/10/31 06:07:09;;;;;;;5.77;2.50;;;9.40;98.00;;;;;;5093177;28;20450;-66
2022/10/31 06:09:36;;;;;;;3.50;2.13;;;9.40;98.00;;;;;;5092356;28;20816;-67
2022/10/31 06:12:23;;;;;;;2.87;2.10;;;9.40;98.00;;;;;;5093948;28;20464;-66
2022/10/31 06:14:50;;;;;;;3.30;1.70;;;9.30;98.00;;;;;;5093794;28;20543;-66
2022/10/31 06:17:18;;;;;;;4.40;2.17;;;9.20;98.00;;;;;;5093882;28;20880;-67
2022/10/31 06:19:45;;;;;;;10.13;2.40;;;9.20;98.00;;;;;;5093963;28;20451;-66
2022/10/31 06:22:13;;;;;;;4.60;2.40;;;9.20;98.00;;;;;;5093743;28;20861;-67
2022/10/31 06:24:42;;;;;;;7.37;3.87;;;9.10;98.00;;;;;;5093814;28;20518;-66
2022/10/31 06:27:09;;;;;;;3.00;2.07;;;9.10;98.00;;;;;;5093673;28;20513;-67
2022/10/31 06:29:38;;;;;;;4.40;2.10;;;9.20;98.00;;;;;;5093673;28;20843;-66
2022/10/31 06:32:05;;;;;;;7.60;3.37;;;9.30;98.00;;;;;;5093800;28;20483;-67
2022/10/31 06:34:34;;;;;;;2.97;2.20;;;9.30;98.00;;;;;;5093575;28;20485;-67
2022/10/31 06:37:01;;;;;;;3.33;1.73;;;9.30;98.00;;;;;;5093879;28;20780;-66
2022/10/31 06:39:28;;;;;;;3.27;2.03;;;9.30;98.00;;;;;;5093535;28;20455;-66
2022/10/31 06:41:55;;;;;;;2.63;2.10;;;9.30;98.00;;;;;;5093732;28;20463;-66
2022/10/31 06:44:22;;;;;;;4.70;2.20;;;9.30;98.00;;;;;;5093526;28;20456;-67
2022/10/31 06:46:52;;;;;;;4.40;2.27;;;9.40;98.00;;;;;;5093685;28;20475;-66
2022/10/31 06:49:20;;;;;;;3.83;2.70;;;9.40;98.00;;;;;;5093488;28;20458;-67
2022/10/31 06:51:51;;;;;;;3.47;1.93;;;9.40;98.00;;;;;;5093208;28;20542;-67
2022/10/31 06:54:18;;;;;;;2.70;1.87;;;9.40;98.00;;;;;;5091814;28;20452;-66
2022/10/31 06:56:47;;;;;;;2.20;1.77;;;9.60;98.00;;;;;;5093497;28;20462;-66
2022/10/31 06:59:14;;;;;;;4.47;2.57;;;9.70;98.00;;;;;;5093039;28;20539;-67
2022/10/31 07:01:41;;;;;;;5.97;2.37;;;9.80;98.00;;;;;;5093020;28;20462;-67
2022/10/31 07:04:09;;;;;;;2.90;1.83;;;9.90;98.00;;;;;;5093105;28;20455;-66
2022/10/31 07:06:36;;;;;;;3.60;2.40;;;10.00;98.00;;;;;;5092723;28;20488;-66
2022/10/31 07:09:05;;;;;;;4.57;2.50;;;10.00;98.00;;;;;;5092895;28;20454;-66
2022/10/31 07:11:33;;;;;;;2.83;2.10;;;9.80;98.00;;;;;;5092728;28;20554;-66
2022/10/31 07:14:00;;;;;;;2.20;1.73;;;9.90;98.00;;;;;;5092779;28;20459;-66
2022/10/31 07:16:27;;;;;;;3.50;2.10;;;9.90;98.00;;;;;;5092111;28;20506;-66
2022/10/31 07:18:54;;;;;;;3.97;1.80;;;9.90;98.00;;;;;;5090752;28;20467;-67
2022/10/31 07:23:49;;;;;;;4.30;2.13;;;9.90;98.00;;;;;;5009074;28;20488;-64
2022/10/31 07:26:18;;;;;;;6.60;3.07;;;9.90;98.00;;;;;;5012025;28;20563;-64
2022/10/31 07:28:46;;;;;;;4.80;2.40;;;10.00;98.00;;;;;;4994739;28;20459;-64
2022/10/31 07:31:13;;;;;;;4.70;2.77;;;10.10;98.00;;;;;;5012043;28;20467;-64
2022/10/31 07:33:41;;;;;;;4.13;2.20;;;10.20;98.00;;;;;;5011882;28;20466;-63
2022/10/31 07:36:08;;;;;;;4.10;2.10;;;10.20;98.00;;;;;;5011815;28;21039;-64
2022/10/31 07:38:35;;;;;;;4.10;2.23;;;10.40;98.00;;;;;;5012215;28;20543;-64
2022/10/31 07:41:02;;;;;;;3.13;2.13;;;10.70;98.00;;;;;;5012795;28;20466;-64
2022/10/31 07:43:33;;;;;;;3.30;2.47;;;10.90;98.00;;;;;;4995073;28;20476;-64
2022/10/31 07:46:01;;;;;;;3.70;2.10;;;10.90;98.00;;;;;;5012738;28;20516;-65
2022/10/31 07:48:28;;;;;;;7.07;3.13;;;10.90;98.00;;;;;;5011807;28;20462;-64
2022/10/31 07:50:56;;;;;;;3.13;2.37;;;10.90;98.00;;;;;;5011784;28;20458;-64
2022/10/31 07:53:23;;;;;;;3.50;2.40;;;10.80;98.00;;;;;;5011562;28;20984;-65
2022/10/31 07:55:51;;;;;;;3.40;2.10;;;10.80;98.00;;;;;;5011186;28;20495;-65
2022/10/31 07:58:19;;;;;;;4.43;2.70;;;10.70;98.00;;;;;;5011540;28;20438;-64
2022/10/31 08:00:48;;;;;;;5.13;2.67;;;10.80;98.00;;;;;;5011642;28;20489;-64
2022/10/31 08:03:17;;;;;;;5.33;2.70;;;10.90;98.00;;;;;;5011568;28;20470;-64
2022/10/31 08:05:45;;;;;;;5.27;2.10;;;10.90;98.00;;;;;;5011551;28;20515;-64
2022/10/31 08:08:14;;;;;;;8.13;2.63;;;10.90;98.00;;;;;;4994156;28;20461;-64
2022/10/31 08:10:44;;;;;;;8.53;2.70;;;10.90;98.00;;;;;;5011573;28;20506;-64
2022/10/31 08:13:13;;;;;;;10.80;3.30;;;11.10;98.00;;;;;;5011058;28;20891;-64
2022/10/31 08:15:41;;;;;;;5.90;3.20;;;11.40;98.00;;;;;;5011407;28;20525;-64
2022/10/31 08:18:13;;;;;;;5.70;2.80;;;11.30;98.00;;;;;;4994072;28;20463;-64
2022/10/31 08:20:41;;;;;;;3.63;2.90;;;11.40;98.00;;;;;;5011532;28;20953;-64
2022/10/31 08:23:10;;;;;;;4.77;2.93;;;11.40;98.00;;;;;;5011162;28;20472;-64
2022/10/31 08:25:38;;;;;;;2.90;2.40;;;11.50;98.00;;;;;;5011322;28;20463;-65
2022/10/31 08:28:06;;;;;;;4.17;2.60;;;11.60;98.00;;;;;;5011190;28;20456;-64
2022/10/31 08:30:35;;;;;;;7.17;3.73;;;11.70;98.00;;;;;;5014842;28;20462;-65
2022/10/31 08:33:04;;;;;;;7.40;3.17;;;11.80;98.00;;;;;;5015130;28;20955;-65
2022/10/31 08:35:33;;;;;;;2.77;2.07;;;12.00;98.00;;;;;;5015316;28;20482;-64
2022/10/31 08:38:01;;;;;;;5.43;2.67;;;12.10;98.00;;;;;;5015155;28;20456;-64
2022/10/31 08:40:30;;;;;;;4.47;3.00;;;12.10;98.00;;;;;;5015259;28;20844;-64
2022/10/31 08:42:58;;;;;;;3.87;2.37;;;12.10;98.00;;;;;;5014984;28;20464;-64
2022/10/31 08:45:25;;;;;;;4.17;2.33;;;12.10;98.00;;;;;;5015016;28;20919;-65
2022/10/31 08:47:53;;;;;;;4.87;2.67;;;12.30;98.00;;;;;;5015071;28;20457;-64
2022/10/31 08:50:28;;;;;;;10.93;3.33;;;12.30;98.00;;;;;;5014701;28;20467;-65
2022/10/31 08:53:01;;;;;;;5.33;2.60;;;12.40;98.00;;;;;;5014726;28;20451;-65
2022/10/31 08:55:28;;;;;;;7.83;2.60;;;12.50;98.00;;;;;;5014674;28;20497;-64
2022/10/31 08:57:56;;;;;;;6.03;2.93;;;12.60;98.00;;;;;;5014823;28;20489;-64
2022/10/31 09:00:24;;;;;;;5.50;2.80;;;12.60;98.00;;;;;;5014747;28;21010;-65
2022/10/31 09:02:57;;;;;;;6.20;3.40;;;12.60;98.00;;;;;;5011581;28;20459;-65
2022/10/31 09:05:24;;;;;;;4.57;2.90;;;12.70;98.00;;;;;;5011912;28;20887;-65
2022/10/31 09:07:51;;;;;;;5.20;3.40;;;12.90;98.00;;;;;;5004165;28;20473;-65
2022/10/31 09:10:20;;;;;;;7.87;3.60;;;12.90;98.00;;;;;;4994546;28;20463;-65
2022/10/31 09:12:47;;;;;;;6.93;3.27;;;13.10;98.00;;;;;;5012290;28;20511;-66
2022/10/31 09:15:14;;;;;;;4.63;2.80;;;13.10;98.00;;;;;;5011752;28;20986;-65
2022/10/31 09:17:47;;;;;;;7.20;3.40;;;13.20;98.00;;;;;;5012009;28;20522;-64
2022/10/31 09:20:15;;;;;;;3.43;2.80;;;13.40;98.00;;;;;;5003839;28;20453;-64
2022/10/31 09:22:42;;;;;;;6.17;3.00;;;13.50;98.00;;;;;;5012029;28;20539;-64
2022/10/31 09:25:09;;;;;;;5.17;3.27;;;13.60;98.00;;;;;;5011625;28;20458;-65
2022/10/31 09:27:38;;;;;;;10.10;3.70;;;13.80;98.00;;;;;;5012536;28;20553;-65
2022/10/31 09:30:06;;;;;;;7.37;3.73;;;13.90;98.00;;;;;;5011812;28;20532;-65
2022/10/31 09:32:33;;;;;;;5.37;3.00;;;14.00;98.00;;;;;;5011933;28;20455;-65
2022/10/31 09:35:00;;;;;;;4.57;2.40;;;14.10;98.00;;;;;;4994262;28;20463;-64
2022/10/31 09:37:27;;;;;;;6.37;3.50;;;14.50;98.00;;;;;;5012426;28;20454;-64
2022/10/31 09:39:54;;;;;;;9.47;3.73;;;14.60;98.00;;;;;;5011507;28;20983;-65
2022/10/31 09:42:47;;;;;;;7.90;3.40;;;14.70;98.00;;;;;;5011248;28;20523;-64
2022/10/31 09:45:32;;;;;;;5.73;2.90;;;14.60;98.00;;;;;;5005015;28;20466;-64
2022/10/31 09:48:12;;;;;;;8.83;3.50;;;14.70;98.00;;;;;;5011833;28;20481;-63
2022/10/31 09:50:51;;;;;;;6.40;3.33;;;14.60;98.00;;;;;;4993803;28;20829;-64
2022/10/31 09:53:26;;;;;;;5.67;3.37;;;14.70;98.00;;;;;;5011737;28;20470;-64
2022/10/31 09:55:54;;;;;;;5.13;3.07;;;14.80;98.00;;;;;;5011745;28;20498;-64
2022/10/31 09:58:26;;;;;;;4.83;3.20;;;14.80;98.00;;;;;;5011773;28;20874;-65
2022/10/31 10:01:01;;;;;;;15.83;3.27;;;15.00;98.00;;;;;;5011546;28;20455;-65
2022/10/31 10:03:33;;;;;;;6.03;3.03;;;15.10;98.00;;;;;;5011785;28;20451;-65
2022/10/31 10:06:12;;;;;;;6.00;3.30;;;15.30;98.00;;;;;;5011835;28;20474;-64
2022/10/31 10:08:39;;;;;;;2.97;2.00;;;15.40;98.00;;;;;;5003813;28;20454;-67
2022/10/31 10:11:22;;;;;;;6.77;2.40;;;15.80;98.00;;;;;;5011420;28;20958;-66
2022/10/31 10:14:05;;;;;;;4.90;2.60;;;16.40;98.00;;;;;;5011330;28;21087;-66
2022/10/31 10:16:48;;;;;;;4.23;2.37;;;16.90;98.00;;;;;;5011463;28;20494;-66
2022/10/31 10:19:31;;;;;;;9.40;2.60;;;17.30;98.00;;;;;;5011495;28;20467;-66
2022/10/31 10:22:17;;;;;;;5.60;3.20;;;17.70;98.00;;;;;;5009687;28;20950;-65
2022/10/31 10:24:56;;;;;;;8.60;3.13;;;17.80;98.00;;;;;;5011357;28;20459;-65
2022/10/31 10:27:32;;;;;;;5.30;3.07;;;17.80;98.00;;;;;;5011382;28;20881;-65
2022/10/31 10:30:06;;;;;;;8.30;3.80;;;17.70;98.00;;;;;;5010862;28;20467;-64
2022/10/31 10:32:43;;;;;;;6.37;3.37;;;17.50;98.00;;;;;;5010925;28;20531;-64
2022/10/31 10:35:20;;;;;;;5.23;3.20;;;17.50;98.00;;;;;;5011104;28;20467;-64
2022/10/31 10:37:50;;;;;;;8.23;3.60;;;17.50;98.00;;;;;;5011002;28;20470;-64
2022/10/31 10:40:21;;;;;;;6.30;3.20;;;17.50;98.00;;;;;;5010544;28;20993;-64
2022/10/31 10:48:42;;;;;;;5.60;2.80;;;17.70;98.00;;;;;;5010655;28;20526;-64
2022/10/31 10:51:19;;;;;;;7.83;3.23;;;17.80;98.00;;;;;;5008916;28;20579;-64
2022/10/31 10:54:13;;;;;;;5.40;2.87;;;17.90;98.00;;;;;;5010522;28;20468;-64
2022/10/31 10:56:55;;;;;;;4.73;3.00;;;18.00;98.00;;;;;;5010747;28;20495;-64
2022/10/31 10:59:23;;;;;;;4.40;2.80;;;18.00;98.00;;;;;;5003074;28;20802;-65
2022/10/31 11:01:52;;;;;;;6.10;3.00;;;18.10;98.00;;;;;;5011113;28;20460;-64
2022/10/31 11:04:33;;;;;;;7.07;2.93;;;18.00;98.00;;;;;;5010520;28;20463;-64
2022/10/31 11:07:03;;;;;;;3.77;2.93;;;18.10;98.00;;;;;;5009261;28;20518;-65
2022/10/31 11:09:33;;;;;;;4.90;2.83;;;18.20;98.00;;;;;;5010679;28;20464;-64
2022/10/31 11:12:06;;;;;;;4.60;2.97;;;18.20;98.00;;;;;;5010451;28;20464;-64
2022/10/31 11:14:43;;;;;;;4.97;2.90;;;18.10;98.00;;;;;;5010524;28;21168;-64
2022/10/31 11:17:21;;;;;;;3.70;2.53;;;18.10;98.00;;;;;;5010574;28;20500;-64
2022/10/31 11:19:48;;;;;;;4.53;2.63;;;18.00;98.00;;;;;;5010496;28;20954;-64
2022/10/31 11:22:17;;;;;;;5.60;3.00;;;17.90;98.00;;;;;;5010168;28;20525;-64
2022/10/31 11:24:45;;;;;;;6.90;3.30;;;17.90;98.00;;;;;;5010155;28;20463;-64
2022/10/31 11:27:17;;;;;;;4.83;2.80;;;17.90;98.00;;;;;;5010073;28;20598;-64
2022/10/31 11:29:44;;;;;;;3.90;2.87;;;17.80;98.00;;;;;;5009674;28;20470;-64
2022/10/31 11:32:20;;;;;;;6.03;3.00;;;17.80;98.00;;;;;;5009868;28;20460;-64
2022/10/31 11:34:50;;;;;;;6.03;2.77;;;17.90;98.00;;;;;;5009850;28;20965;-64
2022/10/31 11:37:21;;;;;;;4.40;2.60;;;18.00;98.00;;;;;;5009863;28;20986;-64
2022/10/31 11:39:53;;;;;;;5.53;2.83;;;18.30;98.00;;;;;;5009687;28;20478;-64
2022/10/31 11:42:23;;;;;;;6.13;3.40;;;18.50;98.00;;;;;;5009945;28;20459;-64
2022/10/31 11:44:52;;;;;;;5.60;3.03;;;18.50;98.00;;;;;;5009897;28;20545;-64
2022/10/31 11:47:26;;;;;;;7.83;2.70;;;18.50;98.00;;;;;;5009715;28;20996;-64
2022/10/31 11:49:54;;;;;;;5.60;2.73;;;18.60;98.00;;;;;;5007313;28;20459;-64
2022/10/31 11:52:24;;;;;;;5.00;2.87;;;18.80;98.00;;;;;;5009710;28;20829;-64
2022/10/31 11:54:55;;;;;;;6.37;3.13;;;19.00;98.00;;;;;;4992429;28;20491;-64
2022/10/31 11:57:27;;;;;;;4.20;2.97;;;19.20;98.00;;;;;;5009633;28;20487;-64
2022/10/31 11:59:55;;;;;;;4.83;2.90;;;19.40;98.00;;;;;;5010070;28;20958;-64
2022/10/31 12:02:32;;;;;;;6.30;3.50;;;19.50;98.00;;;;;;5009653;28;20554;-64
2022/10/31 12:05:08;;;;;;;4.80;2.73;;;19.60;98.00;;;;;;4991330;28;20459;-66
2022/10/31 12:07:35;;;;;;;4.07;3.07;;;19.70;98.00;;;;;;5009565;28;20471;-65
2022/10/31 12:10:05;;;;;;;4.60;3.23;;;19.50;98.00;;;;;;4992114;28;20518;-64
2022/10/31 12:12:56;;;;;;;4.90;2.30;;;19.40;98.00;;;;;;5009653;28;20467;-64
2022/10/31 12:15:36;;;;;;;6.53;3.10;;;19.60;98.00;;;;;;5009445;28;20607;-64
2022/10/31 12:18:28;;;;;;;5.03;3.20;;;19.70;98.00;;;;;;4992246;28;20601;-64
2022/10/31 12:21:13;;;;;;;6.03;3.10;;;19.80;98.00;;;;;;4992634;28;20463;-64
2022/10/31 12:23:53;;;;;;;6.03;3.23;;;19.90;98.00;;;;;;5009003;28;20480;-64
2022/10/31 12:26:28;;;;;;;4.83;2.90;;;20.10;98.00;;;;;;5009376;28;20514;-64
2022/10/31 12:29:15;;;;;;;7.23;3.00;;;20.10;98.00;;;;;;5009238;28;20461;-64
2022/10/31 12:31:56;;;;;;;4.40;2.90;;;20.20;98.00;;;;;;5009372;28;20459;-64
2022/10/31 12:34:53;;;;;;;5.40;2.90;;;20.50;98.00;;;;;;5009166;28;20467;-64
2022/10/31 12:37:34;;;;;;;6.13;3.63;;;20.90;98.00;;;;;;5002899;28;20526;-65
2022/10/31 12:40:16;;;;;;;7.80;3.43;;;21.10;98.00;;;;;;4992847;28;20459;-65
2022/10/31 12:43:04;;;;;;;4.13;2.87;;;21.10;98.00;;;;;;5009352;28;20463;-64
2022/10/31 12:45:53;;;;;;;5.70;3.03;;;21.00;98.00;;;;;;5009160;28;20459;-64
2022/10/31 12:48:49;;;;;;;9.13;2.83;;;20.70;98.00;;;;;;5002071;28;20475;-64
2022/10/31 12:51:28;;;;;;;8.10;3.03;;;20.40;98.00;;;;;;5000866;28;20861;-65
2022/10/31 12:54:29;;;;;;;5.83;3.00;;;20.10;98.00;;;;;;5009223;28;20455;-64
2022/10/31 12:57:02;;;;;;;7.73;3.00;;;19.80;98.00;;;;;;5001752;28;20498;-65
2022/10/31 12:59:32;;;;;;;5.47;3.20;;;19.50;98.00;;;;;;5009063;28;20463;-65
2022/10/31 13:02:05;;;;;;;7.20;3.30;;;19.40;98.00;;;;;;5009293;28;20505;-64
2022/10/31 13:04:41;;;;;;;8.90;3.93;;;19.20;98.00;;;;;;5009176;28;20461;-64
2022/10/31 13:07:16;;;;;;;6.30;3.33;;;19.10;98.00;;;;;;5009262;28;20512;-65
2022/10/31 13:09:50;;;;;;;6.80;4.00;;;19.00;98.00;;;;;;5009111;28;20463;-65
2022/10/31 13:12:21;;;;;;;4.37;2.27;;;19.00;98.00;;;;;;5008911;28;20534;-62
2022/10/31 13:14:53;;;;;;;5.27;3.13;;;19.10;98.00;;;;;;5009604;28;20471;-63
2022/10/31 13:17:29;;;;;;;7.90;4.03;;;19.20;98.00;;;;;;5012545;28;20491;-63